createdAt,value
2023-11-22T00:02:21.544Z,3.11
2023-11-22T00:05:24.520Z,3.09
2023-11-22T00:08:27.205Z,3.11
2023-11-22T00:11:30.018Z,3.11
2023-11-22T00:14:32.523Z,3.11
2023-11-22T00:17:35.718Z,3.10
2023-11-22T00:20:38.535Z,3.10
2023-11-22T00:23:41.424Z,3.10
2023-11-22T00:26:43.821Z,3.10
2023-11-22T00:29:47.235Z,3.10
2023-11-22T00:32:50.201Z,3.15
2023-11-22T00:35:54.677Z,3.16
2023-11-22T00:38:57.187Z,3.17
2023-11-22T00:42:00.031Z,3.21
2023-11-22T00:45:03.226Z,3.19
2023-11-22T00:48:07.128Z,3.15
2023-11-22T00:51:11.419Z,3.09
2023-11-22T00:54:14.756Z,3.06
2023-11-22T00:57:18.050Z,3.10
2023-11-22T01:00:20.687Z,3.18
2023-11-22T01:03:23.184Z,3.24
2023-11-22T01:06:26.322Z,3.29
2023-11-22T01:09:29.906Z,3.38
2023-11-22T01:12:33.168Z,3.41
2023-11-22T01:15:36.109Z,3.45
2023-11-22T01:18:40.734Z,3.52
2023-11-22T01:21:43.753Z,3.46
2023-11-22T01:24:46.900Z,3.43
2023-11-22T01:27:49.285Z,3.37
2023-11-22T01:30:52.175Z,3.33
2023-11-22T01:33:55.170Z,3.35
2023-11-22T01:36:58.225Z,3.38
2023-11-22T01:40:00.800Z,3.40
2023-11-22T01:43:03.791Z,3.46
2023-11-22T01:46:06.217Z,3.46
2023-11-22T01:49:10.993Z,3.47
2023-11-22T01:52:14.359Z,3.50
2023-11-22T01:55:17.270Z,3.52
2023-11-22T01:58:19.609Z,3.55
2023-11-22T02:01:22.507Z,3.57
2023-11-22T02:04:25.241Z,3.56
2023-11-22T02:07:32.536Z,3.62
2023-11-22T02:10:37.643Z,3.48
2023-11-22T02:13:40.249Z,3.42
2023-11-22T02:16:43.258Z,3.38
2023-11-22T02:19:45.594Z,3.30
2023-11-22T02:22:49.239Z,3.22
2023-11-22T02:25:51.585Z,3.16
2023-11-22T02:28:54.319Z,3.01
2023-11-22T02:31:57.107Z,3.01
2023-11-22T02:35:00.275Z,2.99
2023-11-22T02:38:02.772Z,2.99
2023-11-22T02:41:05.871Z,2.99
2023-11-22T02:44:08.498Z,2.99
2023-11-22T02:47:11.667Z,2.96
2023-11-22T02:50:15.094Z,2.86
2023-11-22T02:53:18.821Z,2.91
2023-11-22T02:56:22.402Z,2.93
2023-11-22T02:59:25.158Z,2.96
2023-11-22T03:02:27.604Z,2.98
2023-11-22T03:05:30.286Z,2.99
2023-11-22T03:08:34.326Z,3.01
2023-11-22T03:11:37.996Z,2.99
2023-11-22T03:14:42.531Z,2.87
2023-11-22T03:17:45.487Z,2.83
2023-11-22T03:20:48.115Z,2.80
2023-11-22T03:23:51.220Z,2.86
2023-11-22T03:26:53.915Z,2.86
2023-11-22T03:29:56.872Z,2.78
2023-11-22T03:32:59.508Z,2.76
2023-11-22T03:36:03.369Z,2.77
2023-11-22T03:39:07.152Z,2.79
2023-11-22T03:42:10.033Z,2.70
2023-11-22T03:45:14.438Z,2.70
2023-11-22T03:48:17.191Z,2.78
2023-11-22T03:51:19.867Z,2.78
2023-11-22T03:54:22.724Z,2.86
2023-11-22T03:57:25.300Z,2.88
2023-11-22T04:00:28.404Z,2.91
2023-11-22T04:03:31.090Z,2.96
2023-11-22T04:06:34.649Z,2.94
2023-11-22T04:09:37.647Z,2.90
2023-11-22T04:12:40.315Z,3.00
2023-11-22T04:15:42.885Z,3.02
2023-11-22T04:18:45.831Z,3.02
2023-11-22T04:21:48.909Z,2.99
2023-11-22T04:24:51.433Z,3.07
2023-11-22T04:27:54.138Z,2.92
2023-11-22T04:30:56.919Z,2.95
2023-11-22T04:34:01.439Z,2.95
2023-11-22T04:37:04.367Z,2.95
2023-11-22T04:40:12.508Z,2.93
2023-11-22T04:43:15.304Z,2.99
2023-11-22T04:46:17.966Z,2.93
2023-11-22T04:49:20.472Z,2.86
2023-11-22T04:52:23.353Z,2.75
2023-11-22T04:55:26.217Z,2.78
2023-11-22T04:58:29.016Z,2.88
2023-11-22T05:01:34.808Z,2.83
2023-11-22T05:04:37.852Z,2.82
2023-11-22T05:07:40.718Z,2.82
2023-11-22T05:10:43.324Z,2.84
2023-11-22T05:13:45.650Z,2.83
2023-11-22T05:16:48.949Z,2.88
2023-11-22T05:19:52.050Z,2.76
2023-11-22T05:22:54.701Z,2.77
2023-11-22T05:25:57.420Z,2.72
2023-11-22T05:29:00.422Z,2.73
2023-11-22T05:32:03.946Z,2.68
2023-11-22T05:35:10.976Z,2.65
2023-11-22T05:38:13.608Z,2.60
2023-11-22T05:41:16.897Z,2.49
2023-11-22T05:44:19.561Z,2.47
2023-11-22T05:47:22.521Z,2.50
2023-11-22T05:50:25.198Z,2.54
2023-11-22T05:53:28.136Z,2.50
2023-11-22T05:56:30.568Z,2.52
2023-11-22T05:59:33.169Z,2.39
2023-11-22T06:02:37.714Z,2.42
2023-11-22T06:05:41.154Z,2.37
2023-11-22T06:08:43.878Z,2.46
2023-11-22T06:11:46.685Z,2.50
2023-11-22T06:14:49.099Z,2.62
2023-11-22T06:17:52.144Z,2.59
2023-11-22T06:20:54.779Z,2.59
2023-11-22T06:23:59.499Z,2.64
2023-11-22T06:27:02.317Z,2.61
2023-11-22T06:30:05.277Z,2.59
2023-11-22T06:33:08.321Z,2.69
2023-11-22T06:36:12.746Z,2.81
2023-11-22T06:39:15.384Z,2.92
2023-11-22T06:42:18.215Z,3.07
2023-11-22T06:45:20.625Z,3.23
2023-11-22T06:48:23.810Z,3.36
2023-11-22T06:51:26.553Z,3.41
2023-11-22T06:54:29.466Z,3.45
2023-11-22T06:57:32.185Z,3.44
2023-11-22T07:00:35.053Z,3.57
2023-11-22T07:03:39.092Z,3.74
2023-11-22T07:06:43.885Z,3.84
2023-11-22T07:09:47.357Z,3.98
2023-11-22T07:12:50.289Z,4.21
2023-11-22T07:15:52.995Z,4.29
2023-11-22T07:18:55.984Z,4.42
2023-11-22T07:21:59.093Z,4.57
2023-11-22T07:25:03.539Z,4.68
2023-11-22T07:28:06.266Z,4.74
2023-11-22T07:31:12.682Z,4.73
2023-11-22T07:34:15.320Z,4.83
2023-11-22T07:37:19.345Z,4.87
2023-11-22T07:40:23.878Z,4.99
2023-11-22T07:43:26.658Z,4.97
2023-11-22T07:46:29.071Z,5.00
2023-11-22T07:49:32.058Z,5.06
2023-11-22T07:52:34.608Z,5.07
2023-11-22T07:55:38.952Z,5.10
2023-11-22T07:58:41.856Z,5.15
2023-11-22T08:01:44.886Z,5.27
2023-11-22T08:04:49.252Z,5.34
2023-11-22T08:07:51.813Z,5.37
2023-11-22T08:10:55.027Z,5.44
2023-11-22T08:14:00.150Z,5.46
2023-11-22T08:17:03.275Z,5.59
2023-11-22T08:20:10.523Z,5.71
2023-11-22T08:23:16.131Z,5.85
2023-11-22T08:26:18.880Z,5.89
2023-11-22T08:29:21.730Z,5.97
2023-11-22T08:32:28.931Z,6.20
2023-11-22T08:35:32.379Z,6.42
2023-11-22T08:38:35.753Z,6.62
2023-11-22T08:41:39.266Z,6.62
2023-11-22T08:44:42.567Z,6.78
2023-11-22T08:47:46.521Z,6.88
2023-11-22T08:50:49.329Z,6.96
2023-11-22T08:53:52.534Z,7.22
2023-11-22T08:56:57.431Z,7.34
2023-11-22T09:00:07.298Z,7.49
2023-11-22T09:03:14.168Z,7.63
2023-11-22T09:06:17.396Z,7.76
2023-11-22T09:09:20.781Z,7.75
2023-11-22T09:12:23.750Z,7.69
2023-11-22T09:15:27.974Z,7.76
2023-11-22T09:18:31.052Z,7.75
2023-11-22T09:21:33.917Z,7.81
2023-11-22T09:24:38.108Z,7.92
2023-11-22T09:27:41.622Z,7.99
2023-11-22T09:30:44.683Z,8.16
2023-11-22T09:33:48.025Z,8.02
2023-11-22T09:36:50.902Z,8.05
2023-11-22T09:39:53.604Z,8.17
2023-11-22T09:42:56.986Z,8.32
2023-11-22T09:46:01.022Z,8.53
2023-11-22T09:49:09.077Z,8.58
2023-11-22T09:52:15.523Z,8.59
2023-11-22T09:55:21.016Z,8.72
2023-11-22T09:58:25.450Z,8.85
2023-11-22T10:01:29.384Z,8.95
2023-11-22T10:04:32.994Z,9.06
2023-11-22T10:07:37.309Z,9.15
2023-11-22T10:10:41.518Z,9.22
2023-11-22T10:13:46.804Z,9.29
2023-11-22T10:16:59.652Z,9.24
2023-11-22T10:20:02.984Z,9.32
2023-11-22T10:23:09.899Z,9.31
2023-11-22T10:26:13.336Z,9.27
2023-11-22T10:29:16.032Z,9.44
2023-11-22T10:32:18.769Z,9.55
2023-11-22T10:35:23.612Z,9.65
2023-11-22T10:38:27.083Z,9.55
2023-11-22T10:41:30.515Z,9.64
2023-11-22T10:44:34.121Z,9.54
2023-11-22T10:47:39.346Z,9.51
2023-11-22T10:50:42.120Z,9.32
2023-11-22T10:53:49.896Z,9.42
2023-11-22T10:56:56.064Z,9.33
2023-11-22T11:00:02.286Z,9.27
2023-11-22T11:03:10.897Z,9.21
2023-11-22T11:06:14.713Z,9.13
2023-11-22T11:09:22.456Z,9.00
2023-11-22T11:12:25.750Z,8.98
2023-11-22T11:15:29.812Z,8.92
2023-11-22T11:18:34.256Z,9.07
2023-11-22T11:21:37.114Z,8.95
2023-11-22T11:24:41.104Z,8.85
2023-11-22T11:27:43.851Z,8.47
2023-11-22T11:30:47.934Z,8.41
2023-11-22T11:33:51.296Z,8.48
2023-11-22T11:36:57.260Z,8.51
2023-11-22T11:39:59.923Z,8.37
2023-11-22T11:43:03.249Z,8.32
2023-11-22T11:46:09.393Z,8.36
2023-11-22T11:49:15.814Z,8.44
2023-11-22T11:52:18.989Z,8.33
2023-11-22T11:55:21.962Z,8.39
2023-11-22T11:58:24.783Z,8.44
2023-11-22T12:01:28.918Z,8.25
2023-11-22T12:04:33.053Z,8.33
2023-11-22T12:07:36.457Z,8.43
2023-11-22T12:10:39.199Z,8.24
2023-11-22T12:13:47.594Z,8.18
2023-11-22T12:16:55.636Z,8.22
2023-11-22T12:20:12.512Z,8.15
2023-11-22T12:23:15.507Z,8.30
2023-11-22T12:26:20.555Z,8.31
2023-11-22T12:29:24.479Z,8.30
2023-11-22T12:32:26.934Z,8.42
2023-11-22T12:35:30.630Z,8.47
2023-11-22T12:38:35.517Z,8.34
2023-11-22T12:41:42.589Z,8.27
2023-11-22T12:44:50.604Z,8.18
2023-11-22T12:47:54.163Z,8.07
2023-11-22T12:50:57.695Z,8.01
2023-11-22T12:54:00.709Z,8.13
2023-11-22T12:57:04.132Z,8.30
2023-11-22T13:00:07.990Z,8.41
2023-11-22T13:03:11.784Z,10.70
2023-11-22T13:06:15.132Z,11.32
2023-11-22T13:09:18.102Z,10.04
2023-11-22T13:12:21.258Z,9.39
2023-11-22T13:15:31.264Z,8.82
2023-11-22T13:18:34.345Z,8.27
2023-11-22T13:21:36.808Z,8.10
2023-11-22T13:24:39.637Z,8.03
2023-11-22T13:27:41.906Z,7.96
2023-11-22T13:30:44.924Z,7.98
2023-11-22T13:33:48.260Z,7.98
2023-11-22T13:36:51.078Z,7.97
2023-11-22T13:39:53.801Z,7.97
2023-11-22T13:42:56.882Z,7.89
2023-11-22T13:45:59.453Z,7.85
2023-11-22T13:49:02.342Z,7.81
2023-11-22T13:52:05.027Z,7.70
2023-11-22T13:55:12.144Z,7.65
2023-11-22T13:58:15.203Z,7.62
2023-11-22T14:01:23.056Z,7.53
2023-11-22T14:04:26.214Z,7.51
2023-11-22T14:07:28.650Z,7.46
2023-11-22T14:10:31.529Z,7.45
2023-11-22T14:13:33.989Z,7.42
2023-11-22T14:16:39.848Z,7.36
2023-11-22T14:19:45.663Z,7.34
2023-11-22T14:22:54.290Z,7.25
2023-11-22T14:25:56.721Z,7.15
2023-11-22T14:28:59.485Z,7.03
2023-11-22T14:32:02.469Z,6.95
2023-11-22T14:35:05.805Z,6.89
2023-11-22T14:38:08.451Z,6.82
2023-11-22T14:41:13.725Z,6.73
2023-11-22T14:44:16.313Z,6.71
2023-11-22T14:47:26.109Z,6.62
2023-11-22T14:50:29.529Z,6.57
2023-11-22T14:53:33.461Z,6.59
2023-11-22T14:56:36.122Z,6.46
2023-11-22T14:59:39.641Z,6.41
2023-11-22T15:02:48.854Z,6.31
2023-11-22T15:05:52.052Z,6.23
2023-11-22T15:08:54.658Z,6.16
2023-11-22T15:11:58.108Z,6.10
2023-11-22T15:15:00.624Z,6.12
2023-11-22T15:18:03.481Z,6.08
2023-11-22T15:21:06.540Z,6.07
2023-11-22T15:24:09.944Z,6.00
2023-11-22T15:27:13.613Z,5.88
2023-11-22T15:30:18.229Z,5.85
2023-11-22T15:33:20.890Z,5.88
2023-11-22T15:36:23.873Z,5.95
2023-11-22T15:39:26.424Z,5.92
2023-11-22T15:42:30.355Z,5.81
2023-11-22T15:45:33.243Z,5.82
2023-11-22T15:48:37.049Z,5.70
2023-11-22T15:51:39.738Z,5.65
2023-11-22T15:54:43.670Z,5.65
2023-11-22T15:57:46.521Z,5.59
2023-11-22T16:00:49.611Z,5.64
2023-11-22T16:03:52.299Z,5.67
2023-11-22T16:06:54.689Z,5.60
2023-11-22T16:09:57.273Z,5.55
2023-11-22T16:12:59.675Z,5.63
2023-11-22T16:16:02.844Z,5.46
2023-11-22T16:19:06.262Z,5.36
2023-11-22T16:22:09.919Z,5.22
2023-11-22T16:25:15.790Z,5.13
2023-11-22T16:28:18.980Z,5.09
2023-11-22T16:31:21.818Z,5.03
2023-11-22T16:34:25.014Z,5.05
2023-11-22T16:37:27.766Z,4.86
2023-11-22T16:40:31.233Z,4.81
2023-11-22T16:43:33.909Z,4.73
2023-11-22T16:46:37.533Z,4.65
2023-11-22T16:49:47.325Z,4.65
2023-11-22T16:52:51.466Z,4.72
2023-11-22T16:55:54.047Z,4.68
2023-11-22T16:58:57.447Z,4.70
2023-11-22T17:02:03.099Z,4.73
2023-11-22T17:05:06.587Z,4.69
2023-11-22T17:08:09.143Z,4.73
2023-11-22T17:11:12.648Z,4.60
2023-11-22T17:14:15.019Z,4.64
2023-11-22T17:17:17.968Z,4.59
2023-11-22T17:20:20.661Z,4.45
2023-11-22T17:23:23.411Z,4.46
2023-11-22T17:26:26.252Z,4.46
2023-11-22T17:29:32.063Z,4.50
2023-11-22T17:32:35.812Z,4.53
2023-11-22T17:35:39.664Z,4.38
2023-11-22T17:38:42.611Z,4.37
2023-11-22T17:41:45.631Z,4.20
2023-11-22T17:44:50.540Z,4.12
2023-11-22T17:47:53.870Z,4.11
2023-11-22T17:50:56.324Z,4.06
2023-11-22T17:53:59.364Z,4.13
2023-11-22T17:57:02.175Z,3.97
2023-11-22T18:00:06.582Z,4.02
2023-11-22T18:03:15.482Z,3.96
2023-11-22T18:06:20.387Z,3.97
2023-11-22T18:09:23.489Z,3.94
2023-11-22T18:12:26.183Z,3.94
2023-11-22T18:15:28.510Z,3.84
2023-11-22T18:18:31.403Z,3.71
2023-11-22T18:21:34.823Z,3.75
2023-11-22T18:24:38.757Z,3.69
2023-11-22T18:27:43.673Z,3.51
2023-11-22T18:30:46.546Z,3.50
2023-11-22T18:33:48.956Z,3.41
2023-11-22T18:36:52.000Z,3.40
2023-11-22T18:39:58.380Z,3.26
2023-11-22T18:43:02.159Z,3.19
2023-11-22T18:46:04.997Z,3.21
2023-11-22T18:49:09.008Z,3.18
2023-11-22T18:52:11.445Z,3.14
2023-11-22T18:55:14.524Z,3.12
2023-11-22T18:58:17.334Z,3.11
2023-11-22T19:01:22.094Z,3.17
2023-11-22T19:04:25.965Z,3.11
2023-11-22T19:07:28.811Z,2.99
2023-11-22T19:10:31.498Z,2.94
2023-11-22T19:13:36.695Z,2.94
2023-11-22T19:16:39.138Z,2.88
2023-11-22T19:19:42.764Z,2.91
2023-11-22T19:22:45.353Z,2.79
2023-11-22T19:25:48.480Z,2.69
2023-11-22T19:28:52.475Z,2.70
2023-11-22T19:31:57.033Z,2.62
2023-11-22T19:34:59.581Z,2.31
2023-11-22T19:38:03.345Z,2.22
2023-11-22T19:41:06.011Z,2.07
2023-11-22T19:44:08.830Z,2.02
2023-11-22T19:47:11.425Z,1.97
2023-11-22T19:50:14.178Z,1.93
2023-11-22T19:53:17.978Z,1.78
2023-11-22T19:56:20.609Z,1.66
2023-11-22T19:59:23.540Z,1.62
2023-11-22T20:02:26.481Z,1.64
2023-11-22T20:05:29.120Z,1.55
2023-11-22T20:08:32.126Z,1.47
2023-11-22T20:11:35.374Z,1.39
2023-11-22T20:14:38.345Z,1.35
2023-11-22T20:17:41.536Z,1.27
2023-11-22T20:20:44.102Z,1.21
2023-11-22T20:23:46.785Z,1.13
2023-11-22T20:26:49.187Z,1.02
2023-11-22T20:29:52.636Z,1.00
2023-11-22T20:32:56.167Z,0.98
2023-11-22T20:35:59.421Z,0.96
2023-11-22T20:39:02.374Z,0.91
2023-11-22T20:42:05.692Z,0.98
2023-11-22T20:45:09.655Z,0.92
2023-11-22T20:48:13.747Z,0.90
2023-11-22T20:51:17.660Z,0.85
2023-11-22T20:54:22.494Z,0.87
2023-11-22T20:57:25.387Z,0.89
2023-11-22T21:00:31.724Z,0.79
2023-11-22T21:03:34.980Z,0.86
2023-11-22T21:06:38.697Z,0.83
2023-11-22T21:09:41.951Z,0.76
2023-11-22T21:12:45.205Z,0.72
2023-11-22T21:15:48.557Z,0.64
2023-11-22T21:18:52.237Z,0.64
2023-11-22T21:21:54.729Z,0.58
2023-11-22T21:24:57.352Z,0.53
2023-11-22T21:27:59.729Z,0.51
2023-11-22T21:31:03.023Z,0.57
2023-11-22T21:34:07.447Z,0.45
2023-11-22T21:37:10.251Z,0.38
2023-11-22T21:40:13.971Z,0.45
2023-11-22T21:43:17.148Z,0.34
2023-11-22T21:46:19.484Z,0.45
2023-11-22T21:49:22.383Z,0.37
2023-11-22T21:52:25.063Z,0.35
2023-11-22T21:55:27.916Z,0.31
2023-11-22T21:58:32.229Z,0.28
2023-11-22T22:01:34.948Z,0.25
2023-11-22T22:04:37.863Z,0.23
2023-11-22T22:07:40.437Z,0.30
2023-11-22T22:10:43.178Z,0.27
2023-11-22T22:13:45.715Z,0.19
2023-11-22T22:16:48.650Z,0.26
2023-11-22T22:19:51.102Z,0.22
2023-11-22T22:22:53.900Z,0.21
2023-11-22T22:25:56.549Z,0.26
2023-11-22T22:28:59.465Z,0.19
2023-11-22T22:32:01.798Z,0.16
2023-11-22T22:35:04.665Z,0.15
2023-11-22T22:38:07.379Z,0.12
2023-11-22T22:41:10.043Z,0.09
2023-11-22T22:44:12.655Z,0.12
2023-11-22T22:47:15.740Z,0.12
2023-11-22T22:50:18.741Z,0.12
2023-11-22T22:53:22.119Z,0.14
2023-11-22T22:56:24.504Z,0.07
2023-11-22T22:59:27.423Z,0.09
2023-11-22T23:02:31.625Z,0.06
2023-11-22T23:05:35.210Z,0.04
2023-11-22T23:08:38.148Z,0.02
2023-11-22T23:11:40.809Z,-0.07
2023-11-22T23:14:45.005Z,0.04
2023-11-22T23:17:48.048Z,-0.04
2023-11-22T23:20:50.858Z,-0.02
2023-11-22T23:23:53.779Z,-0.04
2023-11-22T23:26:56.161Z,-0.09
2023-11-22T23:29:59.590Z,-0.13
2023-11-22T23:33:01.979Z,-0.04
2023-11-22T23:36:08.043Z,0.00
2023-11-22T23:39:13.885Z,-0.15
2023-11-22T23:42:17.432Z,-0.20
2023-11-22T23:45:21.007Z,-0.24
2023-11-22T23:48:24.363Z,-0.26
2023-11-22T23:51:26.930Z,-0.28
2023-11-22T23:54:29.778Z,-0.22
2023-11-22T23:57:32.089Z,-0.28
